| time (UTC) | temp F | wind direction | speed MPH | gust MPH | rain 1hr in | rain 24hr in | rain mn in | humidity % | barometer mb |
| 20260507073913 | 51 | 221 | 7.0 | 13.0 | 0.00 | 0.00 | 0.00 | 88 | 1018.3 |
| 20260507071758 | 52 | 243 | 5.0 | 11.0 | 0.00 | 0.00 | 0.00 | 87 | 1018.2 |
| 20260507070804 | 52 | 229 | 7.0 | 13.0 | 0.00 | 0.00 | 0.00 | 87 | 1018.2 |
| 20260507065818 | 52 | 218 | 8.0 | 17.0 | 0.00 | 0.00 | 0.00 | 87 | 1018.0 |
| 20260507064802 | 52 | 236 | 11.0 | 19.0 | 0.00 | 0.00 | 0.00 | 87 | 1017.9 |
| 20260507063755 | 52 | 248 | 12.0 | 19.0 | 0.00 | 0.00 | 0.00 | 87 | 1017.8 |
| 20260507062751 | 52 | 246 | 11.0 | 18.0 | 0.00 | 0.00 | 0.00 | 87 | 1017.8 |
| 20260507061725 | 52 | 223 | 10.0 | 18.0 | 0.00 | 0.00 | 0.00 | 88 | 1017.6 |
| 20260507060658 | 52 | 219 | 9.0 | 16.0 | 0.00 | 0.00 | 0.00 | 88 | 1017.7 |
| 20260507055713 | 52 | 250 | 10.0 | 16.0 | 0.00 | 0.00 | 0.00 | 87 | 1017.6 |
| 20260507054648 | 53 | 209 | 7.0 | 15.0 | 0.00 | 0.00 | 0.00 | 85 | 1017.6 |
| 20260507053622 | 53 | 254 | 8.0 | 15.0 | 0.00 | 0.00 | 0.00 | 84 | 1017.5 |
| 20260507052605 | 53 | 236 | 7.0 | 13.0 | 0.00 | 0.00 | 0.00 | 85 | 1017.6 |
| 20260507051540 | 53 | 216 | 7.0 | 12.0 | 0.00 | 0.00 | 0.00 | 86 | 1017.8 |
| 20260507050508 | 53 | 199 | 7.0 | 10.0 | 0.00 | 0.00 | 0.00 | 88 | 1017.6 |
| 20260507045529 | 53 | 176 | 3.0 | 8.0 | 0.00 | 0.00 | 0.00 | 88 | 1017.8 |
| 20260507044526 | 53 | 187 | 4.0 | 9.0 | 0.00 | 0.00 | 0.00 | 88 | 1017.8 |
| 20260507043531 | 53 | 205 | 6.0 | 10.0 | 0.00 | 0.00 | 0.00 | 88 | 1017.8 |
| 20260507042556 | 53 | 196 | 5.0 | 10.0 | 0.00 | 0.00 | 0.00 | 87 | 1017.7 |
| 20260507041531 | 53 | 171 | 5.0 | 9.0 | 0.00 | 0.00 | 0.00 | 87 | 1017.5 |
| 20260507040544 | 53 | 136 | 4.0 | 11.0 | 0.00 | 0.00 | 0.00 | 87 | 1017.4 |
| 20260507033316 | 53 | 228 | 5.0 | 10.0 | 0.00 | 0.00 | 0.00 | 87 | 1017.2 |
| 20260507032330 | 53 | 142 | 4.0 | 12.0 | 0.00 | 0.00 | 0.00 | 86 | 1017.2 |
| 20260507031335 | 53 | 162 | 5.0 | 12.0 | 0.00 | 0.00 | 0.00 | 86 | 1017.3 |
| 20260507030313 | 53 | 164 | 5.0 | 11.0 | 0.00 | 0.00 | 0.00 | 86 | 1017.4 |
| 20260507024149 | 54 | 211 | 4.0 | 9.0 | 0.00 | 0.00 | 0.00 | 85 | 1017.4 |
| 20260507023142 | 54 | 185 | 5.0 | 10.0 | 0.00 | 0.00 | 0.00 | 85 | 1017.3 |
| 20260507022128 | 54 | 191 | 4.0 | 12.0 | 0.00 | 0.00 | 0.00 | 85 | 1017.4 |
| 20260507020003 | 54 | 169 | 4.0 | 12.0 | 0.00 | 0.00 | 0.00 | 85 | 1017.6 |
| 20260507015008 | 54 | 179 | 4.0 | 10.0 | 0.00 | 0.00 | 0.00 | 85 | 1017.4 |
| 20260507012848 | 54 | 221 | 8.0 | 16.0 | 0.00 | 0.00 | 0.00 | 86 | 1017.4 |
| 20260507011902 | 54 | 190 | 9.0 | 15.0 | 0.00 | 0.00 | 0.00 | 86 | 1017.3 |
| 20260507005729 | 54 | 205 | 9.0 | 14.0 | 0.00 | 0.00 | 0.00 | 85 | 1017.4 |
| 20260507003603 | 55 | 205 | 8.0 | 13.0 | 0.00 | 0.00 | 0.00 | 86 | 1017.4 |
| 20260507002621 | 55 | 211 | 9.0 | 16.0 | 0.00 | 0.00 | 0.00 | 85 | 1017.4 |
| 20260507000430 | 55 | 200 | 9.0 | 13.0 | 0.00 | 0.00 | 0.00 | 84 | 1017.5 |
| 20260506235402 | 56 | 186 | 8.0 | 12.0 | 0.00 | 0.00 | 0.00 | 83 | 1017.4 |
| 20260506234357 | 56 | 180 | 8.0 | 12.0 | 0.00 | 0.00 | 0.00 | 84 | 1017.4 |
| 20260506233347 | 56 | 188 | 8.0 | 12.0 | 0.00 | 0.00 | 0.00 | 84 | 1017.4 |
| 20260506232345 | 56 | 198 | 8.0 | 13.0 | 0.00 | 0.00 | 0.00 | 83 | 1017.4 |
| 20260506231409 | 56 | 189 | 8.0 | 13.0 | 0.00 | 0.00 | 0.00 | 82 | 1017.5 |
| 20260506230417 | 56 | 203 | 6.0 | 12.0 | 0.00 | 0.00 | 0.00 | 82 | 1017.5 |
| 20260506225428 | 56 | 173 | 4.0 | 9.0 | 0.00 | 0.00 | 0.00 | 82 | 1017.5 |
| 20260506224424 | 56 | 142 | 7.0 | 13.0 | 0.00 | 0.00 | 0.00 | 80 | 1017.6 |
| 20260506223422 | 56 | 199 | 8.0 | 13.0 | 0.00 | 0.00 | 0.00 | 81 | 1017.7 |
| 20260506222354 | 56 | 212 | 9.0 | 16.0 | 0.00 | 0.00 | 0.00 | 81 | 1017.7 |
| 20260506221351 | 56 | 221 | 11.0 | 16.0 | 0.00 | 0.00 | 0.00 | 81 | 1017.8 |
| 20260506220358 | 56 | 199 | 5.0 | 14.0 | 0.00 | 0.00 | 0.00 | 80 | 1017.8 |
| 20260506215400 | 56 | 176 | 6.0 | 14.0 | 0.00 | 0.00 | 0.00 | 79 | 1017.7 |
| 20260506214344 | 57 | 194 | 8.0 | 13.0 | 0.00 | 0.00 | 0.00 | 79 | 1017.7 |
| 20260506212244 | 56 | 199 | 10.0 | 16.0 | 0.00 | 0.00 | 0.00 | 79 | 1017.8 |
| 20260506211305 | 56 | 209 | 10.0 | 15.0 | 0.00 | 0.00 | 0.00 | 79 | 1017.8 |
| 20260506204114 | 56 | 207 | 10.0 | 15.0 | 0.00 | 0.00 | 0.00 | 80 | 1017.9 |
| 20260506203105 | 56 | 226 | 10.0 | 16.0 | 0.00 | 0.00 | 0.00 | 79 | 1017.8 |
| 20260506202046 | 56 | 229 | 10.0 | 16.0 | 0.00 | 0.00 | 0.00 | 79 | 1017.7 |
| 20260506201052 | 57 | 205 | 8.0 | 13.0 | 0.00 | 0.00 | 0.00 | 80 | 1017.7 |
| 20260506200108 | 56 | 220 | 8.0 | 13.0 | 0.00 | 0.00 | 0.00 | 78 | 1017.7 |
| 20260506195037 | 56 | 211 | 8.0 | 13.0 | 0.00 | 0.00 | 0.00 | 79 | 1017.7 |
| 20260506194028 | 56 | 212 | 8.0 | 15.0 | 0.00 | 0.00 | 0.00 | 78 | 1017.8 |
| 20260506193024 | 55 | 230 | 9.0 | 15.0 | 0.00 | 0.00 | 0.00 | 80 | 1017.7 |
| 20260506192004 | 56 | 227 | 8.0 | 13.0 | 0.00 | 0.00 | 0.00 | 78 | 1017.7 |
| 20260506190956 | 56 | 213 | 8.0 | 14.0 | 0.00 | 0.00 | 0.00 | 81 | 1017.5 |
| 20260506185923 | 55 | 201 | 8.0 | 15.0 | 0.00 | 0.00 | 0.00 | 81 | 1017.4 |
| 20260506184853 | 55 | 198 | 8.0 | 16.0 | 0.00 | 0.00 | 0.00 | 82 | 1017.5 |
| 20260506182753 | 54 | 188 | 7.0 | 13.0 | 0.00 | 0.00 | 0.00 | 82 | 1017.6 |
| 20260506180635 | 53 | 210 | 7.0 | 13.0 | 0.00 | 0.00 | 0.00 | 82 | 1017.4 |
| 20260506175634 | 53 | 230 | 7.0 | 15.0 | 0.00 | 0.00 | 0.00 | 83 | 1017.4 |
| 20260506174623 | 53 | 244 | 9.0 | 15.0 | 0.00 | 0.00 | 0.00 | 84 | 1017.5 |
| 20260506173619 | 53 | 205 | 7.0 | 12.0 | 0.00 | 0.00 | 0.00 | 83 | 1017.4 |
| 20260506172600 | 53 | 214 | 7.0 | 12.0 | 0.00 | 0.00 | 0.00 | 85 | 1017.1 |
| 20260506171536 | 53 | 247 | 6.0 | 11.0 | 0.00 | 0.00 | 0.00 | 83 | 1017.1 |
| 20260506170528 | 53 | 217 | 6.0 | 9.0 | 0.00 | 0.00 | 0.00 | 84 | 1017.1 |
| 20260506165455 | 53 | 185 | 6.0 | 9.0 | 0.00 | 0.00 | 0.00 | 84 | 1016.9 |
| 20260506164432 | 53 | 219 | 5.0 | 9.0 | 0.00 | 0.00 | 0.00 | 85 | 1016.9 |
| 20260506163415 | 52 | 205 | 5.0 | 12.0 | 0.00 | 0.00 | 0.00 | 84 | 1017.1 |
| 20260506162427 | 52 | 208 | 6.0 | 12.0 | 0.00 | 0.00 | 0.00 | 85 | 1017.0 |
| 20260506161445 | 52 | 222 | 7.0 | 11.0 | 0.00 | 0.00 | 0.00 | 85 | 1017.0 |
| 20260506160506 | 52 | 219 | 6.0 | 13.0 | 0.00 | 0.00 | 0.00 | 85 | 1017.1 |
| 20260506155438 | 52 | 219 | 6.0 | 13.0 | 0.00 | 0.00 | 0.00 | 86 | 1017.0 |
| 20260506154433 | 52 | 242 | 6.0 | 10.0 | 0.00 | 0.00 | 0.00 | 86 | 1017.1 |
| 20260506153433 | 52 | 230 | 6.0 | 11.0 | 0.00 | 0.00 | 0.00 | 86 | 1017.1 |
| 20260506152425 | 52 | 214 | 8.0 | 12.0 | 0.00 | 0.00 | 0.00 | 85 | 1017.1 |
| 20260506151441 | 52 | 217 | 7.0 | 12.0 | 0.00 | 0.00 | 0.00 | 85 | 1016.9 |
| 20260506144302 | 52 | 252 | 6.0 | 10.0 | 0.00 | 0.00 | 0.00 | 85 | 1016.5 |
| 20260506143239 | 52 | 238 | 5.0 | 10.0 | 0.00 | 0.00 | 0.00 | 85 | 1016.2 |
| 20260506142305 | 52 | 235 | 5.0 | 13.0 | 0.00 | 0.00 | 0.00 | 85 | 1016.3 |
| 20260506141257 | 52 | 230 | 7.0 | 13.0 | 0.00 | 0.00 | 0.00 | 86 | 1016.1 |
| 20260506140250 | 52 | 238 | 7.0 | 11.0 | 0.00 | 0.00 | 0.00 | 86 | 1016.3 |
| 20260506134034 | 52 | 227 | 6.0 | 11.0 | 0.00 | 0.00 | 0.00 | 86 | 1016.1 |
| 20260506133029 | 52 | 232 | 4.0 | 12.0 | 0.00 | 0.00 | 0.00 | 86 | 1016.1 |
| 20260506132034 | 52 | 190 | 7.0 | 13.0 | 0.00 | 0.00 | 0.00 | 86 | 1015.9 |
| 20260506125926 | 52 | 212 | 8.0 | 12.0 | 0.00 | 0.00 | 0.00 | 85 | 1015.7 |
| 20260506124943 | 52 | 219 | 8.0 | 16.0 | 0.00 | 0.00 | 0.00 | 85 | 1015.6 |
| 20260506123918 | 52 | 216 | 9.0 | 16.0 | 0.00 | 0.00 | 0.00 | 85 | 1015.7 |
| 20260506122903 | 52 | 211 | 7.0 | 14.0 | 0.00 | 0.00 | 0.00 | 85 | 1015.6 |
| 20260506120709 | 52 | 209 | 10.0 | 16.0 | 0.00 | 0.00 | 0.00 | 85 | 1015.8 |
| 20260506115732 | 52 | 236 | 9.0 | 14.0 | 0.00 | 0.00 | 0.00 | 85 | 1015.5 |
| 20260506114724 | 52 | 203 | 10.0 | 15.0 | 0.00 | 0.00 | 0.00 | 85 | 1015.3 |
| 20260506113651 | 52 | 215 | 10.0 | 16.0 | 0.00 | 0.00 | 0.00 | 85 | 1015.2 |
| 20260506112638 | 52 | 196 | 9.0 | 14.0 | 0.00 | 0.00 | 0.00 | 85 | 1015.1 |
| 20260506111651 | 52 | 207 | 9.0 | 17.0 | 0.00 | 0.00 | 0.00 | 85 | 1015.2 |
| 20260506110714 | 52 | 209 | 10.0 | 17.0 | 0.00 | 0.00 | 0.00 | 85 | 1015.2 |
| 20260506104608 | 52 | 208 | 9.0 | 16.0 | 0.00 | 0.00 | 0.00 | 86 | 1015.0 |
| 20260506103550 | 52 | 215 | 11.0 | 19.0 | 0.00 | 0.00 | 0.00 | 86 | 1014.8 |
| 20260506102521 | 52 | 224 | 12.0 | 19.0 | 0.00 | 0.00 | 0.00 | 87 | 1014.7 |
| 20260506101544 | 51 | 227 | 12.0 | 17.0 | 0.00 | 0.00 | 0.00 | 88 | 1014.6 |
| 20260506100525 | 51 | 213 | 13.0 | 18.0 | 0.00 | 0.00 | 0.00 | 87 | 1014.6 |
| 20260506095527 | 51 | 210 | 12.0 | 18.0 | 0.00 | 0.00 | 0.00 | 88 | 1014.5 |
| 20260506093336 | 51 | 220 | 10.0 | 15.0 | 0.00 | 0.00 | 0.00 | 88 | 1014.4 |
| 20260506092301 | 51 | 196 | 9.0 | 18.0 | 0.00 | 0.00 | 0.00 | 88 | 1014.3 |
| 20260506090131 | 52 | 222 | 9.0 | 14.0 | 0.00 | 0.00 | 0.00 | 88 | 1014.1 |
| 20260506085056 | 52 | 199 | 9.0 | 14.0 | 0.00 | 0.00 | 0.00 | 87 | 1014.1 |
| 20260506084116 | 52 | 196 | 8.0 | 13.0 | 0.00 | 0.00 | 0.00 | 87 | 1014.1 |
| 20260506083131 | 52 | 222 | 9.0 | 16.0 | 0.00 | 0.00 | 0.00 | 86 | 1014.0 |
| 20260506082105 | 52 | 227 | 9.0 | 16.0 | 0.00 | 0.00 | 0.00 | 87 | 1014.0 |
| 20260506081031 | 52 | 214 | 9.0 | 15.0 | 0.00 | 0.00 | 0.00 | 87 | 1014.0 |